Station: Woomera

  Atmospheric Gas Attenuation - ITU Rec 676-11   --------------- db/100km ---------------
Date Time Temp RH % AH g/m3 Dew Point Wind Direction Speed kph Gust kph Barometer mB Rainfall Since 9am 24GHz 47GHz 76GHz 122GHz 134GHz 241GHz
25 02:20 20.7 34 6.12 4.3 19 20 1010.5 0 14.1 20.4 27.8 72.5 61.5 209.8
25 02:10 21 33 6.04 4.1 19 20 1010.7 0 13.9 20.2 27.4 71.5 60.4 206.1
25 02:00 21 32 5.86 3.7 19 20 1010.8 0 13.5 20.0 26.8 69.9 58.4 199.2
25 01:50 21.2 30 5.56 3 19 20 1010.8 0 12.9 19.6 25.8 67.2 55.1 187.5
25 01:40 21.7 30 5.72 3.4 17 19 1010.9 0 13.2 19.7 26.2 68.1 56.5 192.3
25 01:30 21.6 28 5.31 2.3 19 24 1011 0 12.3 19.2 24.9 64.7 52.2 177.3
25 01:20 22.1 27 5.27 2.2 19 20 1011.1 0 12.2 19.0 24.6 64.0 51.5 174.8
25 01:10 22.2 24 4.71 0.7 19 20 1011.1 0 11.1 18.3 22.9 59.3 45.7 154.4
25 01:00 22.5 24 4.79 0.9 20 24 1011.3 0 11.2 18.3 23.0 59.7 46.3 156.7
25 00:50 22.8 23 4.67 0.6 19 20 1011.4 0 11.0 18.1 22.6 58.6 44.9 151.9
25 00:40 22.9 21 4.29 -0.6 19 22 1011.5 0 10.2 17.6 21.4 55.4 41.1 138.4
25 00:30 22.9 19 3.88 -1.9 17 20 1011.6 0 9.3 17.1 20.2 52.2 37.1 124.2
25 00:20 23.1 18 3.72 -2.5 19 20 1011.6 0 9.0 16.9 19.7 50.8 35.4 118.5
25 00:10 23.3 17 3.55 -3.1 20 24 1011.6 0 8.6 16.7 19.2 49.4 33.7 112.4
25 00:00 23.5 15 3.17 -4.6 20 22 1011.8 0 7.9 16.2 18.0 46.4 30.1 99.5
24 23:50 23.7 14 2.99 -5.3 19 22 1012 0 7.5 16.0 17.5 44.9 28.3 93.4
24 23:40 24 14 3.05 -5.1 19 22 1012 0 7.6 16.0 17.6 45.2 28.8 95.0
24 23:30 24.4 13 2.89 -5.8 20 24 1011.9 0 7.3 15.7 17.1 43.8 27.2 89.4
24 23:20 24.5 13 2.91 -5.7 20 24 1012 0 7.3 15.8 17.1 43.9 27.3 89.9
24 23:10 24.7 13 2.94 -5.5 19 20 1012 0 7.4 15.8 17.2 44.0 27.5 90.7
24 23:00 25 13 2.99 -5.3 19 24 1011.9 0 7.4 15.8 17.2 44.2 27.9 92.0
24 22:50 25.2 13 3.03 -5.1 19 20 1012 0 7.5 15.8 17.3 44.4 28.2 93.1
24 22:40 25.7 13 3.11 -4.7 19 20 1012 0 7.7 15.8 17.4 44.8 28.8 95.1
24 22:30 25.6 13 3.09 -4.8 17 22 1011.9 0 7.6 15.8 17.4 44.7 28.6 94.6
24 22:20 25.8 12 2.89 -5.7 17 20 1011.9 0 7.2 15.5 16.8 43.1 26.7 88.0
24 22:10 25.8 12 2.89 -5.7 17 19 1011.9 0 7.2 15.5 16.8 43.1 26.7 88.0
24 22:00 26.3 12 2.97 -5.3 17 20 1011.8 0 7.4 15.5 16.9 43.4 27.3 90.0
24 21:50 26.2 12 2.95 -5.4 17 19 1011.9 0 7.3 15.5 16.9 43.3 27.1 89.5
24 21:40 26.5 12 3 -5.2 17 19 1011.7 0 7.4 15.5 17.0 43.5 27.5 90.7
24 21:30 26.6 12 3.02 -5.1 15 17 1011.6 0 7.5 15.5 17.0 43.6 27.6 91.2
24 21:20 26.7 12 3.04 -5 15 15 1011.5 0 7.5 15.5 17.0 43.7 27.8 91.8
24 21:10 26.8 12 3.05 -4.9 15 15 1011.5 0 7.5 15.5 17.0 43.7 27.8 92.0
24 21:00 27 11 2.83 -5.9 13 17 1011.4 0 7.1 15.3 16.4 42.0 25.8 84.8
24 20:50 27.3 11 2.88 -5.7 15 15 1011.5 0 7.2 15.3 16.5 42.3 26.2 86.1
24 20:40 27.6 11 2.93 -5.5 13 15 1011.5 0 7.3 15.3 16.6 42.5 26.5 87.4
24 20:30 27.8 11 2.96 -5.3 13 15 1011.4 0 7.3 15.3 16.6 42.6 26.7 88.1
24 20:20 28.2 11 3.02 -5 13 13 1011.4 0 7.4 15.3 16.7 42.8 27.1 89.6
24 20:10 28.8 10 2.84 -5.8 15 17 1011.4 0 7.1 15.0 16.1 41.2 25.4 83.4
24 20:00 29.1 10 2.89 -5.6 15 19 1011.3 0 7.2 15.0 16.2 41.4 25.7 84.7
24 19:50 29.5 10 2.95 -5.3 17 19 1011.3 0 7.3 15.0 16.2 41.7 26.1 86.1
24 19:40 29.8 10 3 -5.1 15 17 1011.2 0 7.4 15.0 16.3 41.9 26.4 87.3
24 19:30 30 10 3.03 -4.9 17 20 1011.2 0 7.4 15.0 16.4 42.0 26.6 88.0
24 19:20 29.9 10 3.02 -5 17 17 1011.1 0 7.4 15.0 16.3 41.9 26.6 87.8
24 19:10 30.3 10 3.08 -4.7 19 22 1011.1 0 7.5 15.0 16.4 42.2 27.0 89.3
24 19:00 30.6 10 3.13 -4.4 17 24 1011 0 7.6 15.0 16.5 42.4 27.3 90.5
24 18:50 30.6 10 3.13 -4.5 13 15 1010.9 0 7.6 15.0 16.5 42.4 27.3 90.4
24 18:40 30.7 10 3.15 -4.4 24 28 1010.9 0 7.6 15.0 16.5 42.5 27.4 90.9
24 18:30 30.6 10 3.13 -4.4 19 26 1010.9 0 7.6 15.0 16.5 42.4 27.3 90.4
24 18:20 30.8 10 3.17 -4.3 19 26 1010.9 0 7.7 15.0 16.6 42.5 27.6 91.5
24 18:10 30.6 10 3.13 -4.5 13 15 1010.9 0 7.6 15.0 16.5 42.4 27.3 90.4
24 18:00 30.7 10 3.15 -4.4 17 26 1010.9 0 7.6 15.0 16.5 42.5 27.4 90.9
24 17:50 30.7 10 3.15 -4.4 11 15 1011 0 7.6 15.0 16.5 42.5 27.4 91.0
24 17:40 30.7 10 3.15 -4.4 13 15 1011.1 0 7.6 15.0 16.5 42.5 27.4 91.0
24 17:30 30.7 10 3.15 -4.4 15 22 1011.2 0 7.6 15.0 16.5 42.5 27.4 91.0
24 17:20 30.8 10 3.17 -4.3 17 22 1011.3 0 7.7 15.0 16.6 42.6 27.6 91.5
24 17:10 30.4 12 3.72 -2.2 22 26 1011.3 0 8.8 15.7 18.1 46.6 32.5 108.8
24 17:00 30.9 11 3.5 -3 17 24 1011.4 0 8.4 15.4 17.4 44.8 30.4 101.5
24 16:50 30.3 11 3.39 -3.4 13 17 1011.4 0 8.1 15.4 17.2 44.4 29.7 98.8
24 16:40 30.1 10 3.05 -4.8 11 13 1011.5 0 7.5 15.0 16.4 42.1 26.8 88.6
24 16:30 30.7 10 3.15 -4.4 19 28 1011.7 0 7.6 15.0 16.5 42.5 27.5 91.0
24 16:20 30.6 11 3.45 -3.2 17 20 1011.7 0 8.3 15.4 17.3 44.6 30.1 100.3
24 16:10 30.4 11 3.41 -3.3 19 20 1011.9 0 8.2 15.4 17.3 44.5 29.8 99.3
24 16:00 30.3 11 3.39 -3.4 17 26 1012 0 8.1 15.4 17.3 44.4 29.7 98.8
24 15:50 29.9 12 3.62 -2.6 17 20 1012.2 0 8.6 15.7 17.9 46.2 31.8 106.4
24 15:40 29.8 11 3.3 -3.8 24 26 1012.3 0 8.0 15.4 17.1 44.0 29.1 96.6
24 15:30 29.9 12 3.62 -2.6 15 26 1012.3 0 8.6 15.7 18.0 46.3 31.8 106.4
24 15:20 29.5 13 3.84 -1.8 7 11 1012.6 0 9.1 16.0 18.6 48.1 34.0 113.9
24 15:10 29.2 14 4.07 -1 15 17 1012.7 0 9.6 16.3 19.3 49.9 36.2 121.6
24 15:00 29.6 14 4.16 -0.7 19 26 1012.8 0 9.7 16.4 19.5 50.4 36.8 124.0
24 14:50 28.9 16 4.57 0.6 15 17 1012.9 0 10.6 16.9 20.8 53.8 40.9 138.3
24 14:40 28.7 16 4.52 0.4 19 22 1013.1 0 10.5 16.9 20.7 53.6 40.6 137.0
24 14:30 28.9 16 4.57 0.6 17 24 1013.1 0 10.6 16.9 20.8 53.9 40.9 138.3
24 14:20 29.3 16 4.67 0.9 19 24 1013.5 0 10.8 17.0 21.0 54.4 41.7 141.0
24 14:10 28.5 18 5.03 1.9 9 13 1013.6 0 11.6 17.6 22.2 57.7 45.5 154.4
24 14:00 28.3 18 4.98 1.7 17 28 1013.7 0 11.5 17.5 22.1 57.4 45.1 153.1
24 13:50 28.4 19 5.28 2.6 19 22 1013.9 0 12.1 17.9 23.0 59.7 47.9 163.0
24 13:40 28.3 18 4.98 1.7 15 19 1014.1 0 11.5 17.6 22.1 57.4 45.1 153.1
24 13:30 27.9 19 5.14 2.2 15 24 1014.2 0 11.8 17.8 22.7 59.0 46.9 159.3
24 13:20 27.7 19 5.08 2 20 24 1014.4 0 11.7 17.8 22.6 58.6 46.4 157.6
24 13:10 26.7 23 5.82 3.9 17 20 1014.7 0 13.2 18.9 25.1 65.3 54.3 185.3
24 13:00 26.2 23 5.66 3.5 17 28 1014.8 0 12.9 18.8 24.7 64.4 53.0 180.8
24 12:50 26.3 25 6.19 4.7 11 15 1015.1 0 14.0 19.4 26.4 68.7 58.4 199.5
24 12:40 26.3 23 5.69 3.5 22 24 1015.2 0 13.0 18.8 24.8 64.6 53.3 181.7
24 12:30 26 25 6.09 4.5 15 24 1015.3 0 13.8 19.4 26.1 68.1 57.6 196.7
24 12:20 25.7 27 6.46 5.3 11 19 1015.5 0 14.6 19.9 27.4 71.5 61.6 210.9
24 12:10 25.1 29 6.71 5.8 17 20 1015.6 0 15.1 20.4 28.4 74.1 64.7 221.7
24 12:00 25.1 28 6.48 5.3 17 28 1015.8 0 14.7 20.1 27.7 72.2 62.3 213.2
24 11:50 24.5 32 7.16 6.7 19 22 1015.9 0 16.1 21.1 30.1 78.6 70.1 240.4
24 11:40 24.5 32 7.16 6.7 20 28 1016.1 0 16.1 21.1 30.1 78.6 70.1 240.4
24 11:30 23.5 34 7.19 6.7 17 22 1016.1 0 16.2 21.4 30.6 79.9 71.3 244.5
24 11:20 23.8 34 7.31 7 17 20 1016.3 0 16.4 21.5 30.9 80.7 72.3 248.3
24 11:10 23.8 34 7.31 7 17 20 1016.4 0 16.4 21.5 30.9 80.7 72.3 248.3
24 11:00 22.9 37 7.56 7.4 17 28 1016.3 0 17.0 22.0 32.0 83.8 76.0 260.9
24 10:50 22.9 35 7.15 6.6 20 24 1016.4 0 16.1 21.5 30.7 80.1 71.4 244.8
24 10:40 21.8 40 7.67 7.6 17 20 1016.5 0 17.3 22.5 32.9 86.0 78.3 268.9
24 10:30 22.6 41 8.24 8.7 20 28 1016.5 0 18.4 23.1 34.5 90.5 84.0 289.2
24 10:20 21.7 44 8.39 8.9 22 26 1016.4 0 18.8 23.5 35.4 92.9 86.7 298.6
24 10:10 21.5 45 8.48 9.1 22 24 1016.4 0 19.0 23.7 35.9 94.0 88.0 303.1
24 10:00 21 47 8.61 9.3 20 30 1016.5 0 19.3 24.0 36.6 95.8 90.1 310.5
24 09:50 20.1 51 8.86 9.7 24 28 1016.5 0 19.8 24.6 37.9 99.4 94.2 324.6

Last Refresh: 25-Nov-2020 02:23:39

Most of the information presented on this site is sourced from the Bureau of Meteorology.  Copyright in all material sourced from the Bureau of Meteorology resides with the Commonwealth of Australia.